Truro, Iowa
Current Conditions -  °F | °C
As of 5:55 AM on Thursday 27 Nov 2014 (Local Time) from KI75 Reporting Station
Overcast Overcast  
Wind Chill:   Ceiling: 1400
Heat Index: 15°   Visibility: 10mi
Dew Point:   Wind: 12mph
Humidity: 77%   Direction: 310°NW
Pressure: 30.48"   Gusts: 18mph
Location:  41.21°N, 93.85°W
Report Text: KI75 271155Z AUTO 31010G16KT 10SM OVC014 M10/M13 A3048 RMK AO2 70002 T10961130 11047 21096
Loading
Personal Weather Stations






























Interactive Weather Map New forecast layout! Learn more

10-Day Weather Forecast

Advertisements
Track Severe Weather on mobile